createdAt,value
2018-07-19T00:05:02.742Z,3
2018-07-19T00:15:02.803Z,3
2018-07-19T00:25:02.735Z,3
2018-07-19T00:35:02.686Z,4
2018-07-19T00:45:02.876Z,6
2018-07-19T00:55:02.794Z,5
2018-07-19T01:05:02.811Z,4
2018-07-19T01:15:02.855Z,5
2018-07-19T01:25:02.817Z,3
2018-07-19T01:35:03.468Z,7
2018-07-19T01:45:02.896Z,4
2018-07-19T01:55:02.859Z,4
2018-07-19T02:05:02.761Z,4
2018-07-19T02:15:02.908Z,4
2018-07-19T02:25:02.913Z,5
2018-07-19T02:35:02.946Z,5
2018-07-19T02:45:02.821Z,4
2018-07-19T02:55:02.843Z,5
2018-07-19T03:05:04.376Z,6
2018-07-19T03:15:04.776Z,9
2018-07-19T03:25:02.890Z,5
2018-07-19T03:35:02.900Z,6
2018-07-19T03:45:02.868Z,5
2018-07-19T03:55:02.976Z,8
2018-07-19T04:05:02.866Z,5
2018-07-19T04:15:02.975Z,7
2018-07-19T04:25:02.980Z,5
2018-07-19T04:35:02.954Z,6
2018-07-19T04:45:02.968Z,6
2018-07-19T04:55:02.884Z,6
2018-07-19T05:05:02.999Z,6
2018-07-19T05:15:02.907Z,6
2018-07-19T05:25:03.085Z,8
2018-07-19T05:35:03.008Z,6
2018-07-19T05:45:03.016Z,7
2018-07-19T05:55:03.988Z,5
2018-07-19T06:05:05.094Z,6
2018-07-19T06:15:03.069Z,5
2018-07-19T06:25:08.099Z,5
2018-07-19T06:35:06.369Z,4
2018-07-19T06:45:03.108Z,4
2018-07-19T06:55:03.083Z,4
2018-07-19T07:05:03.079Z,4
2018-07-19T07:15:03.368Z,2
2018-07-19T07:25:04.428Z,2
2018-07-19T07:35:03.079Z,3
2018-07-19T07:45:04.162Z,2
2018-07-19T07:55:03.304Z,3
2018-07-19T08:05:02.994Z,3
2018-07-19T08:15:03.056Z,2
2018-07-19T08:25:03.005Z,3
2018-07-19T08:35:03.111Z,5
2018-07-19T08:45:03.053Z,3
2018-07-19T08:55:03.094Z,3
2018-07-19T09:05:03.117Z,4
2018-07-19T09:15:03.526Z,2
2018-07-19T09:25:03.122Z,3
2018-07-19T09:35:03.067Z,3
2018-07-19T09:45:03.046Z,3
2018-07-19T09:55:03.096Z,5
2018-07-19T10:05:03.173Z,3
2018-07-19T10:15:03.095Z,6
2018-07-19T10:25:03.110Z,6
2018-07-19T10:35:03.025Z,3
2018-07-19T10:45:03.456Z,4
2018-07-19T10:55:03.091Z,4
2018-07-19T11:05:03.088Z,4
2018-07-19T11:15:03.084Z,3
2018-07-19T11:25:03.099Z,4
2018-07-19T11:35:03.033Z,5
2018-07-19T11:45:03.027Z,3
2018-07-19T11:55:03.080Z,4
2018-07-19T12:05:03.107Z,4
2018-07-19T12:15:03.436Z,3
2018-07-19T12:25:03.126Z,3
2018-07-19T12:35:03.205Z,4
2018-07-19T12:45:03.282Z,4
2018-07-19T12:55:03.051Z,3
2018-07-19T13:05:03.376Z,4
2018-07-19T13:15:03.687Z,4
2018-07-19T13:25:03.092Z,4
2018-07-19T13:35:03.334Z,4
2018-07-19T13:45:03.099Z,7
2018-07-19T13:55:03.143Z,3
2018-07-19T14:05:03.176Z,7
2018-07-19T14:15:03.233Z,4
2018-07-19T14:25:03.849Z,4
2018-07-19T14:35:03.065Z,3
2018-07-19T14:45:03.133Z,4
2018-07-19T14:55:03.153Z,4
2018-07-19T15:05:03.072Z,4
2018-07-19T15:15:03.118Z,5
2018-07-19T15:25:03.163Z,4
2018-07-19T15:35:03.217Z,4
2018-07-19T15:45:05.806Z,6
2018-07-19T15:55:19.487Z,4
2018-07-19T16:05:17.162Z,3
2018-07-19T16:15:03.649Z,4
2018-07-19T16:25:03.638Z,4
2018-07-19T16:35:03.227Z,5
2018-07-19T16:45:04.706Z,5
2018-07-19T16:55:03.174Z,5
2018-07-19T17:05:03.203Z,5
2018-07-19T17:15:03.413Z,4
2018-07-19T17:25:03.250Z,5
2018-07-19T17:35:03.370Z,6
2018-07-19T17:45:03.206Z,4
2018-07-19T17:55:03.676Z,4
2018-07-19T18:05:03.249Z,4
2018-07-19T18:15:03.187Z,4
2018-07-19T18:25:03.287Z,5
2018-07-19T18:35:04.234Z,5
2018-07-19T18:45:03.155Z,6
2018-07-19T18:55:03.227Z,4
2018-07-19T19:05:03.440Z,5
2018-07-19T19:15:03.276Z,5
2018-07-19T19:25:03.300Z,15
2018-07-19T19:35:03.280Z,7
2018-07-19T19:45:03.246Z,16
2018-07-19T19:55:03.322Z,12
2018-07-19T20:05:04.247Z,5
2018-07-19T20:15:03.226Z,6
2018-07-19T20:25:03.329Z,8
2018-07-19T20:35:03.257Z,8
2018-07-19T20:45:03.295Z,5
2018-07-19T20:55:03.208Z,5
2018-07-19T21:05:03.248Z,5
2018-07-19T21:15:03.344Z,7
2018-07-19T21:25:03.382Z,7
2018-07-19T21:35:03.212Z,10
2018-07-19T21:45:03.351Z,8
2018-07-19T21:55:03.303Z,8
2018-07-19T22:05:03.210Z,9
2018-07-19T22:15:03.232Z,13
2018-07-19T22:25:03.327Z,12
2018-07-19T22:35:03.295Z,8
2018-07-19T22:45:03.268Z,9
2018-07-19T22:55:04.236Z,9
2018-07-19T23:05:03.225Z,9
2018-07-19T23:15:03.229Z,9
2018-07-19T23:25:44.974Z,9
2018-07-19T23:35:16.794Z,10
2018-07-19T23:45:03.240Z,12
2018-07-19T23:55:03.399Z,9
